25  °C
Temperature
19  °C
  Dewpoint
   Humidity
Temp | Dewpoint | Humidity
16  km/h
Wind Speed
10  mph
Wind Speed
9  kts
Wind Speed
290°
West North
West

Wind Speed
Mostly Scattered
Clouds
Pressure 1001.92 (hPa) - 29.59 (in)
Visibility 6.2 (mi) - 10.0 (km)

Current Conditions
LGTS
Location 6km (3.2mi)
Metar :LGTS 070250Z 29009KT 9999 SCT025 25/19 Q1002 NOSIG
Tue 7th July 04:50 am

Airport
  Metar Aviation API Data Provided by https://www.checkwx.com/ CSS/SVG/PHP scripts by weather34.com © 2015-2020